createdAt,value
2023-03-16T00:03:37.166Z,31.03
2023-03-16T00:08:44.177Z,32.61
2023-03-16T00:13:49.925Z,35.20
2023-03-16T00:18:55.176Z,34.48
2023-03-16T00:23:58.586Z,36.65
2023-03-16T00:29:01.947Z,36.24
2023-03-16T00:34:08.776Z,33.34
2023-03-16T00:39:14.914Z,33.17
2023-03-16T00:44:18.243Z,33.08
2023-03-16T00:49:23.543Z,35.43
2023-03-16T00:54:27.173Z,36.51
2023-03-16T00:59:37.897Z,36.35
2023-03-16T01:04:45.451Z,33.89
2023-03-16T01:09:48.968Z,33.48
2023-03-16T01:14:52.548Z,31.30
2023-03-16T01:19:59.544Z,30.20
2023-03-16T01:25:03.041Z,29.06
2023-03-16T01:30:12.728Z,29.90
2023-03-16T01:35:23.860Z,30.26
2023-03-16T01:40:31.387Z,31.15
2023-03-16T01:45:55.812Z,30.50
2023-03-16T01:51:06.318Z,30.90
2023-03-16T01:56:13.154Z,31.73
2023-03-16T02:01:19.693Z,28.69
2023-03-16T02:06:24.569Z,28.52
2023-03-16T02:11:32.738Z,28.14
2023-03-16T02:16:43.158Z,26.11
2023-03-16T02:21:55.330Z,26.54
2023-03-16T02:27:04.785Z,30.00
2023-03-16T02:32:15.121Z,30.29
2023-03-16T02:37:18.801Z,29.39
2023-03-16T02:42:25.586Z,26.02
2023-03-16T02:47:38.800Z,22.99
2023-03-16T02:52:42.827Z,23.81
2023-03-16T02:57:46.284Z,26.57
2023-03-16T03:02:53.612Z,27.01
2023-03-16T03:07:57.473Z,26.70
2023-03-16T03:13:01.456Z,25.50
2023-03-16T03:18:06.867Z,24.94
2023-03-16T03:23:15.396Z,29.17
2023-03-16T03:28:22.282Z,23.58
2023-03-16T03:33:28.917Z,23.10
2023-03-16T03:38:34.939Z,22.14
2023-03-16T03:43:38.654Z,24.36
2023-03-16T03:48:46.572Z,26.66
2023-03-16T03:53:52.764Z,27.50
2023-03-16T03:59:03.961Z,26.92
2023-03-16T04:04:31.841Z,28.68
2023-03-16T04:09:35.303Z,27.61
2023-03-16T04:14:41.802Z,28.30
2023-03-16T04:19:47.794Z,29.49
2023-03-16T04:24:53.475Z,29.85
2023-03-16T04:30:01.479Z,30.61
2023-03-16T04:35:10.682Z,28.99
2023-03-16T04:40:22.244Z,29.83
2023-03-16T04:45:32.867Z,28.66
2023-03-16T04:50:38.460Z,29.04
2023-03-16T04:55:42.717Z,31.90
2023-03-16T05:00:46.178Z,28.76
2023-03-16T05:05:58.341Z,29.30
2023-03-16T05:11:06.926Z,27.71
2023-03-16T05:16:15.055Z,31.76
2023-03-16T05:21:22.818Z,32.13
2023-03-16T05:26:34.221Z,31.48
2023-03-16T05:31:38.781Z,32.55
2023-03-16T05:36:50.418Z,34.97
2023-03-16T05:41:56.032Z,33.80
2023-03-16T05:47:23.969Z,29.39
2023-03-16T05:52:34.377Z,27.78
2023-03-16T05:57:44.593Z,31.54
2023-03-16T06:02:54.426Z,42.82
2023-03-16T06:08:03.731Z,30.65
2023-03-16T06:13:07.887Z,26.61
2023-03-16T06:18:11.895Z,31.16
2023-03-16T06:23:16.911Z,28.17
2023-03-16T06:28:20.871Z,28.10
2023-03-16T06:33:24.436Z,28.07
2023-03-16T06:38:31.585Z,27.97
2023-03-16T06:43:38.414Z,26.60
2023-03-16T06:48:47.404Z,25.21
2023-03-16T06:53:55.096Z,27.98
2023-03-16T06:58:59.279Z,32.39
2023-03-16T07:04:02.896Z,28.84
2023-03-16T07:09:10.169Z,31.68
2023-03-16T07:14:13.783Z,28.02
2023-03-16T07:19:18.114Z,29.16
2023-03-16T07:24:25.768Z,24.38
2023-03-16T07:29:29.656Z,22.52
2023-03-16T07:34:34.027Z,23.73
2023-03-16T07:39:39.935Z,23.46
2023-03-16T07:44:51.274Z,24.81
2023-03-16T07:49:57.552Z,26.35
2023-03-16T07:55:02.704Z,26.38
2023-03-16T08:00:07.904Z,26.66
2023-03-16T08:05:19.769Z,23.75
2023-03-16T08:10:29.597Z,23.66
2023-03-16T08:15:47.472Z,21.04
2023-03-16T08:21:01.263Z,23.05
2023-03-16T08:26:08.902Z,23.43
2023-03-16T08:31:15.208Z,22.27
2023-03-16T08:36:30.888Z,30.10
2023-03-16T08:41:40.733Z,25.20
2023-03-16T08:46:52.696Z,24.07
2023-03-16T08:51:57.594Z,26.07
2023-03-16T08:57:02.728Z,25.94
2023-03-16T09:02:11.639Z,23.49
2023-03-16T09:07:18.779Z,28.75
2023-03-16T09:12:24.085Z,28.26
2023-03-16T09:17:28.615Z,27.70
2023-03-16T09:22:34.313Z,28.70
2023-03-16T09:27:39.196Z,28.63
2023-03-16T09:32:43.278Z,25.50
2023-03-16T09:38:05.573Z,18.71
2023-03-16T09:43:26.957Z,17.34
2023-03-16T09:48:34.238Z,24.25
2023-03-16T09:53:40.180Z,19.88
2023-03-16T09:58:45.757Z,19.70
2023-03-16T10:04:09.911Z,21.14
2023-03-16T10:09:24.099Z,19.58
2023-03-16T10:14:33.992Z,19.43
2023-03-16T10:19:43.809Z,18.65
2023-03-16T10:24:58.174Z,18.16
2023-03-16T10:30:05.344Z,19.77
2023-03-16T10:35:20.865Z,22.22
2023-03-16T10:40:24.217Z,17.27
2023-03-16T10:45:32.230Z,18.32
2023-03-16T10:50:36.357Z,15.77
2023-03-16T10:55:45.767Z,16.75
2023-03-16T11:00:51.824Z,14.41
2023-03-16T11:05:59.642Z,16.49
2023-03-16T11:11:10.087Z,18.50
2023-03-16T11:16:25.217Z,17.06
2023-03-16T11:21:38.600Z,18.51
2023-03-16T11:26:48.845Z,18.60
2023-03-16T11:31:56.603Z,16.32
2023-03-16T11:37:11.019Z,18.35
2023-03-16T11:42:30.699Z,17.97
2023-03-16T11:47:53.520Z,15.70
2023-03-16T11:53:08.523Z,20.56
2023-03-16T11:58:24.263Z,17.63
2023-03-16T12:03:38.517Z,16.31
2023-03-16T12:08:54.833Z,14.30
2023-03-16T12:14:09.153Z,11.80
2023-03-16T12:19:22.023Z,12.89
2023-03-16T12:24:29.699Z,13.90
2023-03-16T12:29:41.545Z,11.18
2023-03-16T12:34:56.234Z,11.58
2023-03-16T12:40:09.222Z,12.32
2023-03-16T12:45:20.377Z,11.67
2023-03-16T12:50:26.501Z,10.29
2023-03-16T12:55:44.533Z,11.68
2023-03-16T13:00:57.822Z,9.70
2023-03-16T13:06:03.622Z,11.26
2023-03-16T13:11:09.636Z,9.89
2023-03-16T13:16:25.208Z,8.79
2023-03-16T13:21:39.046Z,10.72
2023-03-16T13:26:48.583Z,10.55
2023-03-16T13:31:55.949Z,9.07
2023-03-16T13:37:01.770Z,9.21
2023-03-16T13:42:16.441Z,9.96
2023-03-16T13:47:25.576Z,10.24
2023-03-16T13:52:34.395Z,9.33
2023-03-16T13:57:42.469Z,9.37
2023-03-16T14:02:50.794Z,8.88
2023-03-16T14:07:57.386Z,8.86
2023-03-16T14:13:08.931Z,10.02
2023-03-16T14:18:16.525Z,10.18
2023-03-16T14:23:22.957Z,10.09
2023-03-16T14:28:31.724Z,22.80
2023-03-16T14:33:37.794Z,16.02
2023-03-16T14:38:48.221Z,11.09
2023-03-16T14:43:57.394Z,9.07
2023-03-16T14:49:03.663Z,10.05
2023-03-16T14:54:16.295Z,10.76
2023-03-16T14:59:20.462Z,13.58
2023-03-16T15:04:27.987Z,16.69
2023-03-16T15:09:38.818Z,16.91
2023-03-16T15:14:59.564Z,15.96
2023-03-16T15:20:05.503Z,26.74
2023-03-16T15:25:21.311Z,18.01
2023-03-16T15:30:25.769Z,17.49
2023-03-16T15:35:29.312Z,15.97
2023-03-16T15:40:37.853Z,14.52
2023-03-16T15:45:41.426Z,11.23
2023-03-16T15:50:52.424Z,14.35
2023-03-16T15:56:02.936Z,31.53
2023-03-16T16:01:07.719Z,19.17
2023-03-16T16:06:12.250Z,15.25
2023-03-16T16:11:18.620Z,16.04
2023-03-16T16:16:22.057Z,17.93
2023-03-16T16:21:31.011Z,17.07
2023-03-16T16:26:49.857Z,15.58
2023-03-16T16:31:56.579Z,16.20
2023-03-16T16:37:02.469Z,18.91
2023-03-16T16:42:16.455Z,18.61
2023-03-16T16:47:22.569Z,24.55
2023-03-16T16:52:26.726Z,28.55
2023-03-16T16:57:31.845Z,22.38
2023-03-16T17:02:43.586Z,15.42
2023-03-16T17:07:47.122Z,14.99
2023-03-16T17:12:53.512Z,14.45
2023-03-16T17:18:02.083Z,24.60
2023-03-16T17:23:20.194Z,17.65
2023-03-16T17:28:26.903Z,19.45
2023-03-16T17:33:30.997Z,17.10
2023-03-16T17:38:35.231Z,16.47
2023-03-16T17:43:40.620Z,19.76
2023-03-16T17:48:45.633Z,19.09
2023-03-16T17:53:49.955Z,17.96
2023-03-16T17:58:58.031Z,20.12
2023-03-16T18:04:03.975Z,16.55
2023-03-16T18:09:07.618Z,16.92
2023-03-16T18:14:22.852Z,19.34
2023-03-16T18:19:27.318Z,19.03
2023-03-16T18:24:33.812Z,17.57
2023-03-16T18:29:39.400Z,18.52
2023-03-16T18:34:46.708Z,17.59
2023-03-16T18:39:51.618Z,19.91
2023-03-16T18:44:56.429Z,17.02
2023-03-16T18:50:03.351Z,16.81
2023-03-16T18:55:16.002Z,17.66
2023-03-16T19:00:28.658Z,15.84
2023-03-16T19:05:35.838Z,18.13
2023-03-16T19:10:47.045Z,21.78
2023-03-16T19:15:53.242Z,18.69
2023-03-16T19:20:57.662Z,16.40
2023-03-16T19:26:02.563Z,17.60
2023-03-16T19:31:16.097Z,17.96
2023-03-16T19:36:23.774Z,17.52
2023-03-16T19:41:30.631Z,18.49
2023-03-16T19:46:35.708Z,16.63
2023-03-16T19:51:39.137Z,15.43
2023-03-16T19:56:43.787Z,14.67
2023-03-16T20:01:51.489Z,15.35
2023-03-16T20:07:00.227Z,15.96
2023-03-16T20:12:19.446Z,18.62
2023-03-16T20:17:29.820Z,20.37
2023-03-16T20:22:33.567Z,19.92
2023-03-16T20:27:37.936Z,22.39
2023-03-16T20:32:43.355Z,18.93
2023-03-16T20:37:47.758Z,20.00
2023-03-16T20:42:53.777Z,17.59
2023-03-16T20:47:58.779Z,17.29
2023-03-16T20:53:02.198Z,18.99
2023-03-16T20:58:18.004Z,21.00
2023-03-16T21:03:23.930Z,34.18
2023-03-16T21:08:27.754Z,26.24
2023-03-16T21:13:32.564Z,27.38
2023-03-16T21:18:38.133Z,31.67
2023-03-16T21:23:41.804Z,33.15
2023-03-16T21:28:49.681Z,33.42
2023-03-16T21:33:55.595Z,33.03
2023-03-16T21:38:59.108Z,32.89
2023-03-16T21:44:03.114Z,34.36
2023-03-16T21:49:13.183Z,35.83
2023-03-16T21:54:16.940Z,37.57
2023-03-16T21:59:22.083Z,38.48
2023-03-16T22:04:29.873Z,40.08
2023-03-16T22:09:33.215Z,38.30
2023-03-16T22:14:36.848Z,38.93
2023-03-16T22:19:41.861Z,38.90
2023-03-16T22:24:48.156Z,42.76
2023-03-16T22:29:53.966Z,38.73
2023-03-16T22:34:58.916Z,35.87
2023-03-16T22:40:02.952Z,35.93
2023-03-16T22:45:18.967Z,36.49
2023-03-16T22:50:25.239Z,36.81
2023-03-16T22:55:33.812Z,36.77
2023-03-16T23:00:39.987Z,39.17
2023-03-16T23:05:44.712Z,38.60
2023-03-16T23:10:49.148Z,39.30
2023-03-16T23:15:56.854Z,40.32
2023-03-16T23:21:01.813Z,40.00
2023-03-16T23:26:16.252Z,40.57
2023-03-16T23:31:20.680Z,40.03
2023-03-16T23:36:26.138Z,39.34
2023-03-16T23:41:32.963Z,37.94
2023-03-16T23:46:42.164Z,39.98
2023-03-16T23:51:47.590Z,40.69
2023-03-16T23:56:53.709Z,41.97
